Time;durP1;ratioP1;P1;durP2;ratioP2;P2;SDS_P1;SDS_P2;PMS_P1;PMS_P2;Temp;Humidity;BMP_temperature;BMP_pressure;BME280_temperature;BME280_humidity;BME280_pressure;Samples;Min_cycle;Max_cycle;Signal;HPM_P1;HPM_P2
2022/04/03 00:01:12;;;;;;;2.22;1.40;;;;;;;;;;5034027;28;20371;-77
2022/04/03 00:03:37;;;;;;;3.03;1.15;;;;;;;;;;5035190;28;20025;-77
2022/04/03 00:06:02;;;;;;;2.22;1.08;;;;;;;;;;5035756;28;20068;-79
2022/04/03 00:08:28;;;;;;;1.77;1.08;;;;;;;;;;5037992;28;20111;-77
2022/04/03 00:10:54;;;;;;;2.78;1.35;;;;;;;;;;5038899;28;20437;-77
2022/04/03 00:13:19;;;;;;;4.45;1.38;;;;;;;;;;5037286;28;20036;-77
2022/04/03 00:15:45;;;;;;;3.17;1.20;;;;;;;;;;5039122;28;20466;-77
2022/04/03 00:18:11;;;;;;;2.80;1.45;;;;;;;;;;5038809;28;20385;-77
2022/04/03 00:20:37;;;;;;;3.13;1.05;;;;;;;;;;5037584;28;20025;-77
2022/04/03 00:23:03;;;;;;;3.13;1.38;;;;;;;;;;5037561;28;20021;-77
2022/04/03 00:25:28;;;;;;;2.03;1.13;;;;;;;;;;5038435;28;20406;-77
2022/04/03 00:27:53;;;;;;;4.22;1.40;;;;;;;;;;5038361;28;20017;-77
2022/04/03 00:30:19;;;;;;;5.63;1.30;;;;;;;;;;5038408;28;20079;-77
2022/04/03 00:32:44;;;;;;;2.10;1.20;;;;;;;;;;5038580;28;20470;-77
2022/04/03 00:35:09;;;;;;;1.95;0.98;;;;;;;;;;5038722;28;20032;-77
2022/04/03 00:37:35;;;;;;;2.03;1.30;;;;;;;;;;5037643;28;20497;-77
2022/04/03 00:40:00;;;;;;;5.50;1.05;;;;;;;;;;5036975;28;20435;-76
2022/04/03 00:42:27;;;;;;;1.25;1.08;;;;;;;;;;5036727;28;20072;-77
2022/04/03 00:44:52;;;;;;;2.45;1.20;;;;;;;;;;5038103;28;20033;-77
2022/04/03 00:47:19;;;;;;;3.42;1.20;;;;;;;;;;5037407;28;20025;-77
2022/04/03 00:49:45;;;;;;;1.80;1.10;;;;;;;;;;5037577;28;20133;-77
2022/04/03 00:52:11;;;;;;;4.90;1.40;;;;;;;;;;5037929;28;20096;-77
2022/04/03 00:54:36;;;;;;;6.95;1.33;;;;;;;;;;5036570;28;20044;-78
2022/04/03 00:57:06;;;;;;;3.60;1.30;;;;;;;;;;5035911;28;20026;-76
2022/04/03 00:59:31;;;;;;;2.40;1.05;;;;;;;;;;5037529;28;20029;-77
2022/04/03 01:01:57;;;;;;;1.70;1.02;;;;;;;;;;5037151;28;20021;-78
2022/04/03 01:04:22;;;;;;;1.40;1.20;;;;;;;;;;5036938;28;20486;-78
2022/04/03 01:06:47;;;;;;;2.08;1.20;;;;;;;;;;5035535;28;20371;-77
2022/04/03 01:09:12;;;;;;;2.05;1.10;;;;;;;;;;5036985;28;20460;-77
2022/04/03 01:11:39;;;;;;;2.65;1.30;;;;;;;;;;5036763;28;20037;-77
2022/04/03 01:14:05;;;;;;;1.58;1.17;;;;;;;;;;5036848;28;20021;-77
2022/04/03 01:16:31;;;;;;;1.95;1.13;;;;;;;;;;5037117;28;20052;-77
2022/04/03 01:18:56;;;;;;;2.60;1.10;;;;;;;;;;5036666;28;20021;-77
2022/04/03 01:21:21;;;;;;;2.00;1.25;;;;;;;;;;5036627;28;20063;-77
2022/04/03 01:23:47;;;;;;;2.15;1.30;;;;;;;;;;5036620;28;20482;-77
2022/04/03 01:26:12;;;;;;;3.25;1.30;;;;;;;;;;5036799;28;20048;-76
2022/04/03 01:28:38;;;;;;;2.60;1.42;;;;;;;;;;5036787;28;20033;-77
2022/04/03 01:31:04;;;;;;;3.88;1.52;;;;;;;;;;5036470;28;20032;-76
2022/04/03 01:33:29;;;;;;;4.07;1.30;;;;;;;;;;5036368;28;20029;-76
2022/04/03 01:35:55;;;;;;;2.70;0.93;;;;;;;;;;5036342;28;20017;-77
2022/04/03 01:38:20;;;;;;;2.08;1.08;;;;;;;;;;5036246;28;20025;-78
2022/04/03 01:40:45;;;;;;;3.83;1.27;;;;;;;;;;5035475;28;20543;-77
2022/04/03 01:43:11;;;;;;;2.67;1.35;;;;;;;;;;5036102;28;20032;-77
2022/04/03 01:45:37;;;;;;;2.53;1.20;;;;;;;;;;5036586;28;20033;-79
2022/04/03 01:48:04;;;;;;;2.47;1.33;;;;;;;;;;5036224;28;20031;-77
2022/04/03 01:50:30;;;;;;;2.53;1.33;;;;;;;;;;5036223;28;20033;-76
2022/04/03 01:52:55;;;;;;;2.60;1.23;;;;;;;;;;5037415;28;20026;-76
2022/04/03 01:55:21;;;;;;;2.85;1.20;;;;;;;;;;5035561;28;20033;-76
2022/04/03 01:57:46;;;;;;;2.30;1.33;;;;;;;;;;5036363;28;20491;-76
2022/04/03 02:00:12;;;;;;;1.20;0.77;;;;;;;;;;5035761;28;20029;-77
2022/04/03 02:02:39;;;;;;;3.40;1.20;;;;;;;;;;5036373;28;20048;-77
2022/04/03 02:05:05;;;;;;;1.27;0.93;;;;;;;;;;5035621;28;20029;-77
2022/04/03 02:07:32;;;;;;;1.95;0.93;;;;;;;;;;5036490;28;20025;-77
2022/04/03 02:09:58;;;;;;;1.20;0.98;;;;;;;;;;5035605;28;20033;-77
2022/04/03 02:12:23;;;;;;;1.13;0.93;;;;;;;;;;5036109;28;20029;-77
2022/04/03 02:14:50;;;;;;;1.67;1.00;;;;;;;;;;5035717;28;20025;-77
2022/04/03 02:17:15;;;;;;;3.10;1.10;;;;;;;;;;5035362;28;20379;-77
2022/04/03 02:19:40;;;;;;;2.25;1.25;;;;;;;;;;5035194;28;20079;-77
2022/04/03 02:22:05;;;;;;;2.15;1.50;;;;;;;;;;5036738;28;20378;-77
2022/04/03 02:24:30;;;;;;;2.90;1.00;;;;;;;;;;5035539;28;20434;-77
2022/04/03 02:26:56;;;;;;;3.80;1.02;;;;;;;;;;5034639;28;20065;-77
2022/04/03 02:29:21;;;;;;;3.95;1.05;;;;;;;;;;5034547;28;20030;-76
2022/04/03 02:31:47;;;;;;;3.92;1.10;;;;;;;;;;5034845;28;20163;-77
2022/04/03 02:34:12;;;;;;;2.78;1.08;;;;;;;;;;5036018;28;20036;-76
2022/04/03 02:36:40;;;;;;;4.85;1.10;;;;;;;;;;5034750;28;20497;-77
2022/04/03 02:39:06;;;;;;;2.72;1.17;;;;;;;;;;5035838;28;20437;-77
2022/04/03 02:41:32;;;;;;;2.03;0.90;;;;;;;;;;5035728;28;20022;-76
2022/04/03 02:43:57;;;;;;;1.17;0.85;;;;;;;;;;5035620;28;20561;-77
2022/04/03 02:46:23;;;;;;;3.17;1.20;;;;;;;;;;5035246;28;20030;-76
2022/04/03 02:48:48;;;;;;;1.80;1.30;;;;;;;;;;5034354;28;20029;-78
2022/04/03 02:51:14;;;;;;;4.03;1.38;;;;;;;;;;5035203;28;20100;-77
2022/04/03 02:53:39;;;;;;;2.05;1.10;;;;;;;;;;5035432;28;20604;-77
2022/04/03 02:56:04;;;;;;;1.67;0.93;;;;;;;;;;5035438;28;20442;-77
2022/04/03 02:58:30;;;;;;;1.35;0.93;;;;;;;;;;5035445;28;20490;-78
2022/04/03 03:00:55;;;;;;;5.45;1.30;;;;;;;;;;5035597;28;20501;-77
2022/04/03 03:03:20;;;;;;;1.83;1.10;;;;;;;;;;5035481;28;20033;-76
2022/04/03 03:05:45;;;;;;;1.85;1.13;;;;;;;;;;5034724;28;20033;-77
2022/04/03 03:08:11;;;;;;;1.83;0.85;;;;;;;;;;5032612;28;20385;-77
2022/04/03 03:10:36;;;;;;;3.80;1.27;;;;;;;;;;5033777;28;20387;-77
2022/04/03 03:13:02;;;;;;;5.43;1.40;;;;;;;;;;5032934;28;20467;-78
2022/04/03 03:15:28;;;;;;;0.40;0.38;;;;;;;;;;5033441;28;20068;-78
2022/04/03 03:17:54;;;;;;;3.20;1.40;;;;;;;;;;5034807;28;20028;-77
2022/04/03 03:20:21;;;;;;;2.17;1.17;;;;;;;;;;5034023;28;20026;-76
2022/04/03 03:22:46;;;;;;;2.00;1.10;;;;;;;;;;5034345;28;20028;-77
2022/04/03 03:25:11;;;;;;;1.95;1.10;;;;;;;;;;5034532;28;20112;-77
2022/04/03 03:27:39;;;;;;;3.53;1.30;;;;;;;;;;5034863;28;20017;-76
2022/04/03 03:30:05;;;;;;;3.13;1.20;;;;;;;;;;5033481;28;20029;-77
2022/04/03 03:32:31;;;;;;;3.17;1.40;;;;;;;;;;5018281;28;20025;-76
2022/04/03 03:34:56;;;;;;;1.67;1.10;;;;;;;;;;5036791;28;20183;-76
2022/04/03 03:37:21;;;;;;;2.30;1.40;;;;;;;;;;5035524;28;20017;-77
2022/04/03 03:39:47;;;;;;;2.60;1.30;;;;;;;;;;5034483;28;20036;-77
2022/04/03 03:42:13;;;;;;;3.45;1.50;;;;;;;;;;5038495;28;20048;-77
2022/04/03 03:44:39;;;;;;;4.00;1.45;;;;;;;;;;5038863;28;20040;-76
2022/04/03 03:47:04;;;;;;;2.97;1.20;;;;;;;;;;5038336;28;20036;-77
2022/04/03 03:49:30;;;;;;;2.63;1.20;;;;;;;;;;5039040;28;20052;-77
2022/04/03 03:51:55;;;;;;;1.42;1.00;;;;;;;;;;5038240;28;20034;-78
2022/04/03 03:54:20;;;;;;;2.00;1.25;;;;;;;;;;5038920;28;20053;-77
2022/04/03 03:56:45;;;;;;;2.72;1.30;;;;;;;;;;5038948;28;20026;-77
2022/04/03 03:59:10;;;;;;;1.00;0.80;;;;;;;;;;5037898;28;20473;-77
2022/04/03 04:01:36;;;;;;;2.97;1.25;;;;;;;;;;5038095;28;20099;-77
2022/04/03 04:04:02;;;;;;;2.97;1.23;;;;;;;;;;5038755;28;20029;-77
2022/04/03 04:06:27;;;;;;;3.50;1.35;;;;;;;;;;5037782;28;20018;-77
2022/04/03 04:08:52;;;;;;;1.60;1.00;;;;;;;;;;5036839;28;20443;-76
2022/04/03 04:11:18;;;;;;;3.33;1.58;;;;;;;;;;5037939;28;20025;-77
2022/04/03 04:13:43;;;;;;;4.82;1.40;;;;;;;;;;5038044;28;20040;-77
2022/04/03 04:16:10;;;;;;;1.90;1.40;;;;;;;;;;5037974;28;20100;-76
2022/04/03 04:18:36;;;;;;;2.45;1.33;;;;;;;;;;5037961;28;20029;-76
2022/04/03 04:21:02;;;;;;;2.80;1.33;;;;;;;;;;5037794;28;20025;-77
2022/04/03 04:23:27;;;;;;;4.55;1.20;;;;;;;;;;5038229;28;20440;-76
2022/04/03 04:25:52;;;;;;;2.33;1.52;;;;;;;;;;5037803;28;20033;-77
2022/04/03 04:28:18;;;;;;;2.55;1.42;;;;;;;;;;5037359;28;20378;-78
2022/04/03 04:30:43;;;;;;;2.92;1.15;;;;;;;;;;5037555;28;20025;-77
2022/04/03 04:33:09;;;;;;;2.97;1.40;;;;;;;;;;5037591;28;20163;-77
2022/04/03 04:35:35;;;;;;;3.65;1.73;;;;;;;;;;5037632;28;20061;-78
2022/04/03 04:38:01;;;;;;;2.20;1.33;;;;;;;;;;5037801;28;20025;-76
2022/04/03 04:40:26;;;;;;;6.85;1.58;;;;;;;;;;5037620;28;20089;-78
2022/04/03 04:42:52;;;;;;;2.28;1.48;;;;;;;;;;5037841;28;20049;-77
2022/04/03 04:45:17;;;;;;;3.47;1.70;;;;;;;;;;5036080;28;20056;-77
2022/04/03 04:47:43;;;;;;;3.13;1.58;;;;;;;;;;5037550;28;20390;-77
2022/04/03 04:50:11;;;;;;;3.08;1.40;;;;;;;;;;5038586;28;20017;-77
2022/04/03 04:52:37;;;;;;;3.67;1.50;;;;;;;;;;5036825;28;20021;-77
2022/04/03 04:55:05;;;;;;;3.00;1.35;;;;;;;;;;5037954;28;20025;-76
2022/04/03 04:57:32;;;;;;;3.28;1.60;;;;;;;;;;5038860;28;20458;-77
2022/04/03 04:59:58;;;;;;;2.97;1.48;;;;;;;;;;5038047;28;20508;-77
2022/04/03 05:02:24;;;;;;;4.20;1.70;;;;;;;;;;5038643;28;20466;-77
2022/04/03 05:04:49;;;;;;;4.90;1.42;;;;;;;;;;5037964;28;20030;-77
2022/04/03 05:07:14;;;;;;;4.40;1.67;;;;;;;;;;5038312;28;20029;-76
2022/04/03 05:09:41;;;;;;;3.45;1.65;;;;;;;;;;5038901;28;20045;-77
2022/04/03 05:12:07;;;;;;;4.10;1.70;;;;;;;;;;5038189;28;20063;-76
2022/04/03 05:14:32;;;;;;;2.22;1.40;;;;;;;;;;5039423;28;20025;-76
2022/04/03 05:16:57;;;;;;;3.65;1.45;;;;;;;;;;5039176;28;20017;-77
2022/04/03 05:19:24;;;;;;;1.70;1.27;;;;;;;;;;5037556;28;20029;-77
2022/04/03 05:21:50;;;;;;;3.03;1.52;;;;;;;;;;5038701;28;20032;-76
2022/04/03 05:24:15;;;;;;;2.92;1.55;;;;;;;;;;5035941;28;20026;-77
2022/04/03 05:26:40;;;;;;;4.32;1.90;;;;;;;;;;5037123;28;20462;-77
2022/04/03 05:29:07;;;;;;;3.55;1.92;;;;;;;;;;5038262;28;20040;-77
2022/04/03 05:31:32;;;;;;;2.42;1.50;;;;;;;;;;5038091;28;20021;-77
2022/04/03 05:33:57;;;;;;;2.75;1.60;;;;;;;;;;5038295;28;20021;-77
2022/04/03 05:36:23;;;;;;;3.78;1.88;;;;;;;;;;5037796;28;20025;-78
2022/04/03 05:38:48;;;;;;;2.42;1.75;;;;;;;;;;5035988;28;20099;-77
2022/04/03 05:41:13;;;;;;;2.83;1.55;;;;;;;;;;5037991;28;20021;-76
2022/04/03 05:43:39;;;;;;;4.45;2.00;;;;;;;;;;5037543;28;20025;-77
2022/04/03 05:46:04;;;;;;;3.65;2.05;;;;;;;;;;5035649;28;20056;-77
2022/04/03 05:48:29;;;;;;;5.13;1.98;;;;;;;;;;5037397;28;20026;-77
2022/04/03 05:50:54;;;;;;;3.85;1.85;;;;;;;;;;5036708;28;20026;-77
2022/04/03 05:53:21;;;;;;;2.40;1.75;;;;;;;;;;5037252;28;20055;-76
2022/04/03 05:55:47;;;;;;;4.47;1.80;;;;;;;;;;5037562;28;20036;-77
2022/04/03 05:58:12;;;;;;;4.38;1.90;;;;;;;;;;5035476;28;20044;-77
2022/04/03 06:00:37;;;;;;;3.63;1.70;;;;;;;;;;5036721;28;20021;-76
2022/04/03 06:03:03;;;;;;;4.65;1.80;;;;;;;;;;5037812;28;20029;-76
2022/04/03 06:05:31;;;;;;;3.45;1.83;;;;;;;;;;5037677;28;20039;-77
2022/04/03 06:07:57;;;;;;;5.05;2.05;;;;;;;;;;5037989;28;20014;-76
2022/04/03 06:10:24;;;;;;;4.97;1.73;;;;;;;;;;5037790;28;20113;-77
2022/04/03 06:13:03;;;;;;;3.17;1.88;;;;;;;;;;5036907;28;20037;-77
2022/04/03 06:15:34;;;;;;;4.50;2.00;;;;;;;;;;5035433;28;20060;-77
2022/04/03 06:18:01;;;;;;;4.32;2.28;;;;;;;;;;5036722;28;20017;-78
2022/04/03 06:20:27;;;;;;;5.97;2.03;;;;;;;;;;5036495;28;20021;-77
2022/04/03 06:22:52;;;;;;;4.05;1.60;;;;;;;;;;5034844;28;20029;-77
2022/04/03 06:25:18;;;;;;;3.38;1.92;;;;;;;;;;5034531;28;20021;-77
2022/04/03 06:27:43;;;;;;;3.33;1.80;;;;;;;;;;5035802;28;20082;-77
2022/04/03 06:30:09;;;;;;;3.13;1.80;;;;;;;;;;5034431;28;20194;-77
2022/04/03 06:32:34;;;;;;;3.03;1.90;;;;;;;;;;5035803;28;20028;-76
2022/04/03 06:34:59;;;;;;;3.65;2.13;;;;;;;;;;5034526;28;20560;-77
2022/04/03 06:37:25;;;;;;;3.37;2.20;;;;;;;;;;5034140;28;20021;-77
2022/04/03 06:39:50;;;;;;;5.07;2.30;;;;;;;;;;5035720;28;20262;-77
2022/04/03 06:42:15;;;;;;;3.13;2.08;;;;;;;;;;5035741;28;20255;-77
2022/04/03 06:44:41;;;;;;;3.67;2.38;;;;;;;;;;5035346;28;20108;-78
2022/04/03 06:47:07;;;;;;;7.82;2.15;;;;;;;;;;5036002;28;20032;-77
2022/04/03 06:49:33;;;;;;;3.75;2.20;;;;;;;;;;5035709;28;20025;-77
2022/04/03 06:51:58;;;;;;;6.20;1.98;;;;;;;;;;5035166;28;20087;-77
2022/04/03 06:54:24;;;;;;;3.28;1.67;;;;;;;;;;5033818;28;20072;-77
2022/04/03 06:56:52;;;;;;;4.45;2.17;;;;;;;;;;5035400;28;20025;-77
2022/04/03 06:59:17;;;;;;;4.50;1.88;;;;;;;;;;5034686;28;20084;-77
2022/04/03 07:01:42;;;;;;;4.55;2.00;;;;;;;;;;5035375;28;20025;-76
2022/04/03 07:04:07;;;;;;;6.03;2.28;;;;;;;;;;5035148;28;20171;-77
2022/04/03 07:06:33;;;;;;;4.53;2.22;;;;;;;;;;5035705;28;20033;-77
2022/04/03 07:08:58;;;;;;;3.22;1.77;;;;;;;;;;5034747;28;20100;-77
2022/04/03 07:11:23;;;;;;;2.67;1.63;;;;;;;;;;5035000;28;20032;-77
2022/04/03 07:13:49;;;;;;;6.70;1.70;;;;;;;;;;5035383;28;20033;-76
2022/04/03 07:16:14;;;;;;;2.33;1.55;;;;;;;;;;5036257;28;20031;-77
2022/04/03 07:18:40;;;;;;;3.63;1.83;;;;;;;;;;5039002;28;20037;-77
2022/04/03 07:21:05;;;;;;;2.08;1.42;;;;;;;;;;5037644;28;20029;-78
2022/04/03 07:23:30;;;;;;;3.55;1.60;;;;;;;;;;5039698;28;20026;-77
2022/04/03 07:25:55;;;;;;;4.78;1.58;;;;;;;;;;5038681;28;20119;-77
2022/04/03 07:28:22;;;;;;;3.13;1.70;;;;;;;;;;5039450;28;20029;-78
2022/04/03 07:30:47;;;;;;;3.15;1.58;;;;;;;;;;5038723;28;20037;-77
2022/04/03 07:33:12;;;;;;;3.92;1.83;;;;;;;;;;5039011;28;20036;-77
2022/04/03 07:35:37;;;;;;;3.10;1.52;;;;;;;;;;5038610;28;20026;-76
2022/04/03 07:38:03;;;;;;;3.17;1.60;;;;;;;;;;5039186;28;20064;-77
2022/04/03 07:40:28;;;;;;;3.53;1.80;;;;;;;;;;5039126;28;20549;-77
2022/04/03 07:42:53;;;;;;;3.60;1.95;;;;;;;;;;5039777;28;20113;-78
2022/04/03 07:45:19;;;;;;;5.53;1.73;;;;;;;;;;5039110;28;20116;-77
2022/04/03 07:47:46;;;;;;;4.97;1.75;;;;;;;;;;5037427;28;20025;-78
2022/04/03 07:50:12;;;;;;;2.88;1.65;;;;;;;;;;5038116;28;20041;-77
2022/04/03 07:52:38;;;;;;;3.13;1.58;;;;;;;;;;5039135;28;20017;-77
2022/04/03 07:55:03;;;;;;;2.95;1.60;;;;;;;;;;5038549;28;20025;-77
2022/04/03 07:57:28;;;;;;;2.78;1.60;;;;;;;;;;5039086;28;20025;-77
2022/04/03 07:59:54;;;;;;;3.55;2.10;;;;;;;;;;5038388;28;20025;-77
2022/04/03 08:02:20;;;;;;;4.63;1.90;;;;;;;;;;5038640;28;20164;-77
2022/04/03 08:04:45;;;;;;;2.33;1.63;;;;;;;;;;5036955;28;20048;-77
2022/04/03 08:07:10;;;;;;;3.05;1.40;;;;;;;;;;5037812;28;20079;-77
2022/04/03 08:09:36;;;;;;;2.25;1.20;;;;;;;;;;5037029;28;20022;-77
2022/04/03 08:12:01;;;;;;;4.53;1.80;;;;;;;;;;5036313;28;20044;-77
2022/04/03 08:14:27;;;;;;;4.15;1.48;;;;;;;;;;5038017;28;20044;-76
2022/04/03 08:16:53;;;;;;;3.13;1.50;;;;;;;;;;5038125;28;20013;-76
2022/04/03 08:19:18;;;;;;;2.20;1.20;;;;;;;;;;5036916;28;20037;-77
2022/04/03 08:21:43;;;;;;;1.77;1.10;;;;;;;;;;5037637;28;20043;-77
2022/04/03 08:24:09;;;;;;;2.00;1.00;;;;;;;;;;5038580;28;20105;-77
2022/04/03 08:26:34;;;;;;;3.38;1.08;;;;;;;;;;5037316;28;20061;-78
2022/04/03 08:28:59;;;;;;;2.75;1.20;;;;;;;;;;5038497;28;20037;-78
2022/04/03 08:31:24;;;;;;;2.50;1.35;;;;;;;;;;5036855;28;20022;-78
2022/04/03 08:33:51;;;;;;;1.38;1.02;;;;;;;;;;5037563;28;20065;-76
2022/04/03 08:36:16;;;;;;;0.75;0.65;;;;;;;;;;5036638;28;20040;-77
2022/04/03 08:38:42;;;;;;;4.90;1.13;;;;;;;;;;5037404;28;20049;-77
2022/04/03 08:41:08;;;;;;;2.03;0.95;;;;;;;;;;5037105;28;20466;-78
2022/04/03 08:43:33;;;;;;;2.17;1.23;;;;;;;;;;5036438;28;20064;-78
2022/04/03 08:45:59;;;;;;;2.28;1.02;;;;;;;;;;5037367;28;20120;-78
2022/04/03 08:48:30;;;;;;;1.73;0.70;;;;;;;;;;5039123;28;20051;-78
2022/04/03 08:50:58;;;;;;;1.75;0.80;;;;;;;;;;5037817;28;20036;-77
2022/04/03 08:53:26;;;;;;;1.20;0.77;;;;;;;;;;5038349;28;20071;-77
2022/04/03 08:55:51;;;;;;;1.30;0.88;;;;;;;;;;5037264;28;20081;-77
2022/04/03 08:58:18;;;;;;;1.67;0.90;;;;;;;;;;5037818;28;20052;-78
2022/04/03 09:00:43;;;;;;;3.05;0.85;;;;;;;;;;5037911;28;20021;-78
2022/04/03 09:03:09;;;;;;;1.35;0.80;;;;;;;;;;5037556;28;20127;-79
2022/04/03 09:05:39;;;;;;;1.63;1.08;;;;;;;;;;5037630;28;20033;-78
2022/04/03 09:08:05;;;;;;;2.00;1.13;;;;;;;;;;5038062;28;20025;-77
2022/04/03 09:10:31;;;;;;;1.48;1.05;;;;;;;;;;5037224;28;20477;-77
2022/04/03 09:12:56;;;;;;;1.98;0.98;;;;;;;;;;5037666;28;20083;-77
2022/04/03 09:15:22;;;;;;;1.90;0.93;;;;;;;;;;5035875;28;20037;-77
2022/04/03 09:17:52;;;;;;;0.95;0.88;;;;;;;;;;5037584;28;20053;-77
2022/04/03 09:20:20;;;;;;;1.55;0.90;;;;;;;;;;5039011;28;20037;-76
2022/04/03 09:22:49;;;;;;;1.08;0.90;;;;;;;;;;5039767;28;20057;-78
2022/04/03 09:25:17;;;;;;;1.20;0.93;;;;;;;;;;5036676;28;20025;-77
2022/04/03 09:27:51;;;;;;;0.90;0.70;;;;;;;;;;5034967;28;20024;-78
2022/04/03 09:30:19;;;;;;;1.60;1.00;;;;;;;;;;5037343;28;20029;-79
2022/04/03 09:32:47;;;;;;;1.20;0.88;;;;;;;;;;5035382;28;20025;-77
2022/04/03 09:35:14;;;;;;;1.30;0.80;;;;;;;;;;5035081;28;20083;-78
2022/04/03 09:37:39;;;;;;;2.40;0.93;;;;;;;;;;5036990;28;20067;-78
2022/04/03 09:40:06;;;;;;;1.35;0.80;;;;;;;;;;5037358;28;20037;-77
2022/04/03 09:42:31;;;;;;;1.95;1.00;;;;;;;;;;5035561;28;20025;-77
2022/04/03 09:44:56;;;;;;;0.93;0.77;;;;;;;;;;5037545;28;20025;-78
2022/04/03 09:47:24;;;;;;;3.92;1.00;;;;;;;;;;5037171;28;20025;-76
2022/04/03 09:49:57;;;;;;;3.08;1.05;;;;;;;;;;5036437;28;20029;-77
2022/04/03 09:52:33;;;;;;;1.25;0.95;;;;;;;;;;5036096;28;20026;-76
2022/04/03 09:54:59;;;;;;;2.65;1.00;;;;;;;;;;5035993;28;20026;-77
2022/04/03 09:57:24;;;;;;;1.50;1.08;;;;;;;;;;5036335;28;20033;-77
2022/04/03 09:59:51;;;;;;;1.40;0.88;;;;;;;;;;5036531;28;20040;-77
2022/04/03 10:02:17;;;;;;;2.28;1.02;;;;;;;;;;5036869;28;20045;-78
2022/04/03 10:04:44;;;;;;;2.58;1.25;;;;;;;;;;5036209;28;20435;-77
2022/04/03 10:07:13;;;;;;;2.30;1.00;;;;;;;;;;5036712;28;20025;-77
2022/04/03 10:09:46;;;;;;;1.73;1.02;;;;;;;;;;5034861;28;20145;-78
2022/04/03 10:12:14;;;;;;;2.10;1.20;;;;;;;;;;5036723;28;20497;-78
2022/04/03 10:14:40;;;;;;;2.25;0.73;;;;;;;;;;5037106;28;20033;-77
2022/04/03 10:17:05;;;;;;;2.38;1.00;;;;;;;;;;5036557;28;20044;-77
2022/04/03 10:19:30;;;;;;;1.55;0.90;;;;;;;;;;5036893;28;20083;-77
2022/04/03 10:21:58;;;;;;;3.22;1.38;;;;;;;;;;5034139;28;20040;-79
2022/04/03 10:24:25;;;;;;;1.27;0.93;;;;;;;;;;5035359;28;20031;-76
2022/04/03 10:26:57;;;;;;;1.38;1.00;;;;;;;;;;5035116;28;20075;-77
2022/04/03 10:29:24;;;;;;;3.15;0.80;;;;;;;;;;5035828;28;20052;-76
2022/04/03 10:32:04;;;;;;;1.05;0.73;;;;;;;;;;5034469;28;20393;-78
2022/04/03 10:34:29;;;;;;;1.10;0.80;;;;;;;;;;5036038;28;20025;-77
2022/04/03 10:36:55;;;;;;;2.50;0.88;;;;;;;;;;5035135;28;20028;-77
2022/04/03 10:39:25;;;;;;;1.30;1.13;;;;;;;;;;5035876;28;20083;-77
2022/04/03 10:42:20;;;;;;;2.00;0.93;;;;;;;;;;5036340;28;20100;-77
2022/04/03 10:45:11;;;;;;;1.55;0.93;;;;;;;;;;5037498;28;20033;-77
2022/04/03 10:47:37;;;;;;;1.80;1.10;;;;;;;;;;5036171;28;20032;-77
2022/04/03 10:50:05;;;;;;;2.17;1.20;;;;;;;;;;5036123;28;20037;-78
2022/04/03 10:52:42;;;;;;;1.73;1.02;;;;;;;;;;5036340;28;20036;-78
2022/04/03 10:55:27;;;;;;;0.95;0.85;;;;;;;;;;5035966;28;20052;-77
2022/04/03 10:58:06;;;;;;;1.35;1.02;;;;;;;;;;5036339;28;20433;-78
2022/04/03 11:00:37;;;;;;;1.77;1.15;;;;;;;;;;5037223;28;20053;-76
2022/04/03 11:03:31;;;;;;;2.92;1.27;;;;;;;;;;5037172;28;20049;-77
2022/04/03 11:05:56;;;;;;;1.88;1.33;;;;;;;;;;5036007;28;20068;-77
2022/04/03 11:08:42;;;;;;;1.73;1.10;;;;;;;;;;5037148;28;20025;-78
2022/04/03 11:11:08;;;;;;;1.85;1.08;;;;;;;;;;5033914;28;20052;-76
2022/04/03 11:13:34;;;;;;;1.05;0.90;;;;;;;;;;5034325;28;20478;-77
2022/04/03 11:16:08;;;;;;;2.63;1.23;;;;;;;;;;5034124;28;20039;-77
2022/04/03 11:18:43;;;;;;;3.10;1.27;;;;;;;;;;5034202;28;20441;-77
2022/04/03 11:21:17;;;;;;;1.42;1.05;;;;;;;;;;5033721;28;20049;-78
2022/04/03 11:23:46;;;;;;;2.15;1.30;;;;;;;;;;5017658;28;20021;-76
2022/04/03 11:26:12;;;;;;;1.92;0.98;;;;;;;;;;5033473;28;20021;-77
2022/04/03 11:28:39;;;;;;;2.40;1.25;;;;;;;;;;5035519;28;20474;-78
2022/04/03 11:31:05;;;;;;;1.60;1.20;;;;;;;;;;5035364;28;20083;-76
2022/04/03 11:33:31;;;;;;;1.90;1.13;;;;;;;;;;5036512;28;20440;-76
2022/04/03 11:36:06;;;;;;;1.23;1.00;;;;;;;;;;5037021;28;20116;-76
2022/04/03 11:38:36;;;;;;;1.95;1.27;;;;;;;;;;5036438;28;20044;-76
2022/04/03 11:41:04;;;;;;;3.10;1.40;;;;;;;;;;5037328;28;20030;-77
2022/04/03 11:43:29;;;;;;;2.90;1.40;;;;;;;;;;5036945;28;20509;-76
2022/04/03 11:45:57;;;;;;;2.67;1.25;;;;;;;;;;5036993;28;20030;-76
2022/04/03 11:48:32;;;;;;;1.63;1.10;;;;;;;;;;5038510;28;20398;-77
2022/04/03 11:51:12;;;;;;;2.35;1.02;;;;;;;;;;5037522;28;20033;-76
2022/04/03 11:53:40;;;;;;;2.58;1.50;;;;;;;;;;5035543;28;20034;-77
2022/04/03 11:56:16;;;;;;;1.35;0.95;;;;;;;;;;5034948;28;20044;-76
2022/04/03 11:58:53;;;;;;;1.90;1.23;;;;;;;;;;5033652;28;20064;-77
2022/04/03 12:01:33;;;;;;;1.90;1.23;;;;;;;;;;5033643;28;20025;-76
2022/04/03 12:04:08;;;;;;;1.85;1.10;;;;;;;;;;5037595;28;20031;-77
2022/04/03 12:06:35;;;;;;;4.28;1.27;;;;;;;;;;5038325;28;20029;-76
2022/04/03 12:09:04;;;;;;;1.95;1.30;;;;;;;;;;5036151;28;20033;-77
2022/04/03 12:11:30;;;;;;;2.30;1.30;;;;;;;;;;5037553;28;20078;-76
2022/04/03 12:13:58;;;;;;;1.83;1.05;;;;;;;;;;5037876;28;20025;-77
2022/04/03 12:16:28;;;;;;;3.30;1.60;;;;;;;;;;5035842;28;20025;-77
2022/04/03 12:18:56;;;;;;;1.50;1.20;;;;;;;;;;5037061;28;20021;-77
2022/04/03 12:21:36;;;;;;;1.80;1.48;;;;;;;;;;5037326;28;20029;-75
2022/04/03 12:24:13;;;;;;;1.58;1.13;;;;;;;;;;5035630;28;20021;-76
2022/04/03 12:26:42;;;;;;;1.25;1.05;;;;;;;;;;5037077;28;20437;-76
2022/04/03 12:29:08;;;;;;;1.27;0.90;;;;;;;;;;5036008;28;20025;-76
2022/04/03 12:31:35;;;;;;;2.72;1.40;;;;;;;;;;5037424;28;20022;-77
2022/04/03 12:34:12;;;;;;;2.15;1.25;;;;;;;;;;5037796;28;20033;-76
2022/04/03 12:36:43;;;;;;;3.75;1.40;;;;;;;;;;5036943;28;20478;-76
2022/04/03 12:39:32;;;;;;;1.98;1.40;;;;;;;;;;5037605;28;20039;-77
2022/04/03 12:42:13;;;;;;;2.53;1.25;;;;;;;;;;5037257;28;20032;-76
2022/04/03 12:44:52;;;;;;;3.95;1.50;;;;;;;;;;5037215;28;20025;-76
2022/04/03 12:47:27;;;;;;;4.03;1.50;;;;;;;;;;5036928;28;20049;-76
2022/04/03 12:50:07;;;;;;;3.70;1.20;;;;;;;;;;5035892;28;20025;-77
2022/04/03 12:52:49;;;;;;;2.97;1.45;;;;;;;;;;5035292;28;20032;-77
2022/04/03 12:55:21;;;;;;;2.42;1.48;;;;;;;;;;5036680;28;20029;-77
2022/04/03 13:00:55;;;;;;;1.80;1.30;;;;;;;;;;5037666;28;20052;-74
2022/04/03 13:03:36;;;;;;;2.15;1.33;;;;;;;;;;5036590;28;20025;-79
2022/04/03 13:06:06;;;;;;;1.73;1.27;;;;;;;;;;5034661;28;20029;-73
2022/04/03 13:08:56;;;;;;;1.65;1.40;;;;;;;;;;5034086;28;20025;-74
2022/04/03 13:11:29;;;;;;;1.98;1.30;;;;;;;;;;5036886;28;20148;-73
2022/04/03 13:14:11;;;;;;;1.75;1.30;;;;;;;;;;5034306;28;20025;-73
2022/04/03 13:16:37;;;;;;;1.55;1.20;;;;;;;;;;5037098;28;20086;-75
2022/04/03 13:19:02;;;;;;;2.17;1.35;;;;;;;;;;5036987;28;20538;-77
2022/04/03 13:21:27;;;;;;;3.28;1.50;;;;;;;;;;5037166;28;20398;-77
2022/04/03 13:23:53;;;;;;;1.77;1.27;;;;;;;;;;5037486;28;20488;-77
2022/04/03 13:26:21;;;;;;;2.43;1.43;;;;;;;;;;5037877;28;20406;-76
2022/04/03 13:28:46;;;;;;;2.28;1.15;;;;;;;;;;5035422;28;20290;-76
2022/04/03 13:31:11;;;;;;;1.85;1.23;;;;;;;;;;5036823;28;20029;-77
2022/04/03 13:33:37;;;;;;;2.22;1.45;;;;;;;;;;5038143;28;20113;-77
2022/04/03 13:36:02;;;;;;;2.95;1.27;;;;;;;;;;5035040;28;20490;-78
2022/04/03 13:38:27;;;;;;;2.20;1.35;;;;;;;;;;5036579;28;20021;-76
2022/04/03 13:40:53;;;;;;;2.33;1.40;;;;;;;;;;5035377;28;20060;-76
2022/04/03 13:43:18;;;;;;;4.25;1.48;;;;;;;;;;5035392;28;20478;-76
2022/04/03 13:46:00;;;;;;;1.70;1.40;;;;;;;;;;5035516;28;20532;-76
2022/04/03 13:48:37;;;;;;;3.47;1.50;;;;;;;;;;5034059;28;20779;-77
2022/04/03 13:51:15;;;;;;;2.10;1.40;;;;;;;;;;5035594;28;20391;-77
2022/04/03 13:53:41;;;;;;;2.03;1.33;;;;;;;;;;5035227;28;20112;-76
2022/04/03 13:56:09;;;;;;;2.05;1.27;;;;;;;;;;5034952;28;20083;-77
2022/04/03 13:58:34;;;;;;;1.73;1.30;;;;;;;;;;5033762;28;20021;-77
2022/04/03 14:01:01;;;;;;;1.50;1.20;;;;;;;;;;5035503;28;20030;-77
2022/04/03 14:03:28;;;;;;;2.72;1.35;;;;;;;;;;5035794;28;20064;-77
2022/04/03 14:05:53;;;;;;;2.40;1.50;;;;;;;;;;5035146;28;20514;-76
2022/04/03 14:08:19;;;;;;;2.45;1.88;;;;;;;;;;5035055;28;20026;-77
2022/04/03 14:10:46;;;;;;;2.80;1.70;;;;;;;;;;5037067;28;20025;-80
2022/04/03 14:13:19;;;;;;;1.85;1.23;;;;;;;;;;5036516;28;20060;-78
2022/04/03 14:15:45;;;;;;;1.85;1.40;;;;;;;;;;5036135;28;20036;-76
2022/04/03 14:18:10;;;;;;;2.55;1.40;;;;;;;;;;5035167;28;20029;-76
2022/04/03 14:20:35;;;;;;;1.60;1.00;;;;;;;;;;5035079;28;20025;-76
2022/04/03 14:23:00;;;;;;;1.80;1.40;;;;;;;;;;5034600;28;20490;-75
2022/04/03 14:25:26;;;;;;;5.43;1.77;;;;;;;;;;5034403;28;20082;-77
2022/04/03 14:27:52;;;;;;;2.33;1.13;;;;;;;;;;5035158;28;20040;-76
2022/04/03 14:30:17;;;;;;;5.82;1.40;;;;;;;;;;5034908;28;20068;-76
2022/04/03 14:32:48;;;;;;;1.85;1.30;;;;;;;;;;5034795;28;20029;-78
2022/04/03 14:35:14;;;;;;;2.35;1.48;;;;;;;;;;5035355;28;20029;-76
2022/04/03 14:37:41;;;;;;;1.95;1.20;;;;;;;;;;5033705;28;20025;-76
2022/04/03 14:40:07;;;;;;;2.25;1.40;;;;;;;;;;5034039;28;20033;-76
2022/04/03 14:42:33;;;;;;;2.88;1.30;;;;;;;;;;5034051;28;20401;-77
2022/04/03 14:44:58;;;;;;;2.58;1.50;;;;;;;;;;5035854;28;20026;-76
2022/04/03 14:47:23;;;;;;;1.90;1.25;;;;;;;;;;5033360;28;20090;-76